sensor_id;sensor_type;location;lat;lon;timestamp;P1;durP1;ratioP1;P2;durP2;ratioP2
72904;SDS011;61048;52.162;4.516;2023-07-24T00:00:17;2.92;;;1.25;;
72904;SDS011;61048;52.162;4.516;2023-07-24T00:02:44;3.92;;;1.42;;
72904;SDS011;61048;52.162;4.516;2023-07-24T00:05:11;4.63;;;1.77;;
72904;SDS011;61048;52.162;4.516;2023-07-24T00:07:38;2.70;;;1.27;;
72904;SDS011;61048;52.162;4.516;2023-07-24T00:10:07;4.57;;;1.23;;
72904;SDS011;61048;52.162;4.516;2023-07-24T00:12:34;4.72;;;1.48;;
72904;SDS011;61048;52.162;4.516;2023-07-24T00:15:01;3.30;;;1.15;;
72904;SDS011;61048;52.162;4.516;2023-07-24T00:17:28;3.28;;;1.35;;
72904;SDS011;61048;52.162;4.516;2023-07-24T00:19:55;2.47;;;0.93;;
72904;SDS011;61048;52.162;4.516;2023-07-24T00:22:22;3.72;;;1.25;;
72904;SDS011;61048;52.162;4.516;2023-07-24T00:24:49;3.72;;;1.35;;
72904;SDS011;61048;52.162;4.516;2023-07-24T00:27:18;2.47;;;1.25;;
72904;SDS011;61048;52.162;4.516;2023-07-24T00:29:45;4.50;;;1.30;;
72904;SDS011;61048;52.162;4.516;2023-07-24T00:32:12;2.88;;;1.13;;
72904;SDS011;61048;52.162;4.516;2023-07-24T00:34:39;3.15;;;1.35;;
72904;SDS011;61048;52.162;4.516;2023-07-24T00:37:06;2.80;;;1.30;;
72904;SDS011;61048;52.162;4.516;2023-07-24T00:39:33;3.33;;;1.50;;
72904;SDS011;61048;52.162;4.516;2023-07-24T00:42:01;4.22;;;1.40;;
72904;SDS011;61048;52.162;4.516;2023-07-24T00:44:29;3.17;;;1.17;;
72904;SDS011;61048;52.162;4.516;2023-07-24T00:46:56;3.88;;;1.20;;
72904;SDS011;61048;52.162;4.516;2023-07-24T00:49:23;3.30;;;1.10;;
72904;SDS011;61048;52.162;4.516;2023-07-24T00:51:50;3.67;;;1.20;;
72904;SDS011;61048;52.162;4.516;2023-07-24T00:54:18;3.53;;;1.55;;
72904;SDS011;61048;52.162;4.516;2023-07-24T00:56:48;2.72;;;1.10;;
72904;SDS011;61048;52.162;4.516;2023-07-24T00:59:16;3.35;;;1.58;;
72904;SDS011;61048;52.162;4.516;2023-07-24T01:01:44;3.30;;;1.27;;
72904;SDS011;61048;52.162;4.516;2023-07-24T01:04:12;4.45;;;1.50;;
72904;SDS011;61048;52.162;4.516;2023-07-24T01:06:40;2.92;;;1.45;;
72904;SDS011;61048;52.162;4.516;2023-07-24T01:09:07;3.13;;;1.30;;
72904;SDS011;61048;52.162;4.516;2023-07-24T01:11:36;3.63;;;1.30;;
72904;SDS011;61048;52.162;4.516;2023-07-24T01:14:08;3.50;;;1.63;;
72904;SDS011;61048;52.162;4.516;2023-07-24T01:16:40;4.47;;;1.45;;
72904;SDS011;61048;52.162;4.516;2023-07-24T01:19:12;4.78;;;1.30;;
72904;SDS011;61048;52.162;4.516;2023-07-24T01:24:23;3.28;;;1.63;;
72904;SDS011;61048;52.162;4.516;2023-07-24T01:26:57;5.05;;;1.50;;
72904;SDS011;61048;52.162;4.516;2023-07-24T01:29:24;2.58;;;1.27;;
72904;SDS011;61048;52.162;4.516;2023-07-24T01:31:51;4.05;;;1.77;;
72904;SDS011;61048;52.162;4.516;2023-07-24T01:34:18;4.43;;;1.30;;
72904;SDS011;61048;52.162;4.516;2023-07-24T01:36:45;3.50;;;1.38;;
72904;SDS011;61048;52.162;4.516;2023-07-24T01:39:13;3.25;;;1.50;;
72904;SDS011;61048;52.162;4.516;2023-07-24T01:41:41;3.00;;;1.63;;
72904;SDS011;61048;52.162;4.516;2023-07-24T01:44:10;3.10;;;1.27;;
72904;SDS011;61048;52.162;4.516;2023-07-24T01:46:37;3.08;;;1.42;;
72904;SDS011;61048;52.162;4.516;2023-07-24T01:49:04;3.35;;;1.50;;
72904;SDS011;61048;52.162;4.516;2023-07-24T01:51:31;4.20;;;1.50;;
72904;SDS011;61048;52.162;4.516;2023-07-24T01:53:58;3.92;;;1.40;;
72904;SDS011;61048;52.162;4.516;2023-07-24T01:56:25;3.58;;;1.27;;
72904;SDS011;61048;52.162;4.516;2023-07-24T01:58:52;3.40;;;1.70;;
72904;SDS011;61048;52.162;4.516;2023-07-24T02:01:20;4.25;;;1.38;;
72904;SDS011;61048;52.162;4.516;2023-07-24T02:03:47;3.42;;;1.30;;
72904;SDS011;61048;52.162;4.516;2023-07-24T02:06:14;4.05;;;1.40;;
72904;SDS011;61048;52.162;4.516;2023-07-24T02:08:41;2.75;;;1.52;;
72904;SDS011;61048;52.162;4.516;2023-07-24T02:11:13;3.88;;;1.85;;
72904;SDS011;61048;52.162;4.516;2023-07-24T02:13:43;3.00;;;1.30;;
72904;SDS011;61048;52.162;4.516;2023-07-24T02:16:10;2.92;;;1.33;;
72904;SDS011;61048;52.162;4.516;2023-07-24T02:18:40;2.72;;;1.35;;
72904;SDS011;61048;52.162;4.516;2023-07-24T02:21:08;3.78;;;1.55;;
72904;SDS011;61048;52.162;4.516;2023-07-24T02:23:36;3.72;;;1.70;;
72904;SDS011;61048;52.162;4.516;2023-07-24T02:26:03;2.83;;;1.27;;
72904;SDS011;61048;52.162;4.516;2023-07-24T02:28:30;3.65;;;1.38;;
72904;SDS011;61048;52.162;4.516;2023-07-24T02:30:57;3.90;;;1.38;;
72904;SDS011;61048;52.162;4.516;2023-07-24T02:33:25;3.55;;;1.40;;
72904;SDS011;61048;52.162;4.516;2023-07-24T02:35:53;3.78;;;1.27;;
72904;SDS011;61048;52.162;4.516;2023-07-24T02:38:20;3.83;;;2.20;;
72904;SDS011;61048;52.162;4.516;2023-07-24T02:40:47;3.85;;;1.58;;
72904;SDS011;61048;52.162;4.516;2023-07-24T02:43:15;3.17;;;1.27;;
72904;SDS011;61048;52.162;4.516;2023-07-24T02:45:41;3.88;;;1.52;;
72904;SDS011;61048;52.162;4.516;2023-07-24T02:48:08;3.33;;;1.58;;
72904;SDS011;61048;52.162;4.516;2023-07-24T02:50:35;3.40;;;1.58;;
72904;SDS011;61048;52.162;4.516;2023-07-24T02:53:04;4.03;;;1.50;;
72904;SDS011;61048;52.162;4.516;2023-07-24T02:55:31;3.45;;;1.35;;
72904;SDS011;61048;52.162;4.516;2023-07-24T02:57:58;2.78;;;1.40;;
72904;SDS011;61048;52.162;4.516;2023-07-24T03:00:25;4.97;;;1.48;;
72904;SDS011;61048;52.162;4.516;2023-07-24T03:02:52;3.88;;;1.58;;
72904;SDS011;61048;52.162;4.516;2023-07-24T03:05:19;4.53;;;1.58;;
72904;SDS011;61048;52.162;4.516;2023-07-24T03:07:46;2.90;;;1.45;;
72904;SDS011;61048;52.162;4.516;2023-07-24T03:10:15;4.78;;;1.60;;
72904;SDS011;61048;52.162;4.516;2023-07-24T03:12:42;3.47;;;1.30;;
72904;SDS011;61048;52.162;4.516;2023-07-24T03:15:09;2.58;;;1.13;;
72904;SDS011;61048;52.162;4.516;2023-07-24T03:17:36;3.55;;;1.60;;
72904;SDS011;61048;52.162;4.516;2023-07-24T03:20:09;3.72;;;1.27;;
72904;SDS011;61048;52.162;4.516;2023-07-24T03:22:42;3.92;;;1.60;;
72904;SDS011;61048;52.162;4.516;2023-07-24T03:25:09;3.13;;;1.42;;
72904;SDS011;61048;52.162;4.516;2023-07-24T03:27:38;3.92;;;1.50;;
72904;SDS011;61048;52.162;4.516;2023-07-24T03:30:06;5.03;;;1.42;;
72904;SDS011;61048;52.162;4.516;2023-07-24T03:32:33;3.17;;;1.30;;
72904;SDS011;61048;52.162;4.516;2023-07-24T03:35:01;4.22;;;1.40;;
72904;SDS011;61048;52.162;4.516;2023-07-24T03:37:28;4.40;;;1.15;;
72904;SDS011;61048;52.162;4.516;2023-07-24T03:39:55;4.03;;;1.50;;
72904;SDS011;61048;52.162;4.516;2023-07-24T03:42:25;4.72;;;1.77;;
72904;SDS011;61048;52.162;4.516;2023-07-24T03:44:54;2.63;;;1.17;;
72904;SDS011;61048;52.162;4.516;2023-07-24T03:47:21;3.03;;;1.25;;
72904;SDS011;61048;52.162;4.516;2023-07-24T03:49:49;2.90;;;1.17;;
72904;SDS011;61048;52.162;4.516;2023-07-24T03:52:16;3.45;;;1.50;;
72904;SDS011;61048;52.162;4.516;2023-07-24T03:54:43;3.40;;;1.10;;
72904;SDS011;61048;52.162;4.516;2023-07-24T03:57:11;3.72;;;1.55;;
72904;SDS011;61048;52.162;4.516;2023-07-24T03:59:38;5.40;;;1.45;;
72904;SDS011;61048;52.162;4.516;2023-07-24T04:02:06;3.35;;;1.38;;
72904;SDS011;61048;52.162;4.516;2023-07-24T04:04:33;3.72;;;1.25;;
72904;SDS011;61048;52.162;4.516;2023-07-24T04:07:01;4.28;;;1.50;;
72904;SDS011;61048;52.162;4.516;2023-07-24T04:09:28;3.47;;;1.05;;
72904;SDS011;61048;52.162;4.516;2023-07-24T04:11:54;3.28;;;1.20;;
72904;SDS011;61048;52.162;4.516;2023-07-24T04:14:21;3.33;;;1.38;;
72904;SDS011;61048;52.162;4.516;2023-07-24T04:16:48;4.40;;;1.35;;
72904;SDS011;61048;52.162;4.516;2023-07-24T04:19:17;2.60;;;1.00;;
72904;SDS011;61048;52.162;4.516;2023-07-24T04:21:44;3.17;;;1.02;;
72904;SDS011;61048;52.162;4.516;2023-07-24T04:24:11;4.32;;;1.60;;
72904;SDS011;61048;52.162;4.516;2023-07-24T04:26:38;4.20;;;1.15;;
72904;SDS011;61048;52.162;4.516;2023-07-24T04:29:05;3.30;;;1.33;;
72904;SDS011;61048;52.162;4.516;2023-07-24T04:31:33;3.92;;;1.25;;
72904;SDS011;61048;52.162;4.516;2023-07-24T04:34:00;3.38;;;1.30;;
72904;SDS011;61048;52.162;4.516;2023-07-24T04:36:28;2.70;;;1.27;;
72904;SDS011;61048;52.162;4.516;2023-07-24T04:38:55;3.40;;;1.35;;
72904;SDS011;61048;52.162;4.516;2023-07-24T04:41:22;3.90;;;1.30;;
72904;SDS011;61048;52.162;4.516;2023-07-24T04:43:49;4.90;;;1.23;;
72904;SDS011;61048;52.162;4.516;2023-07-24T04:46:16;4.63;;;1.20;;
72904;SDS011;61048;52.162;4.516;2023-07-24T04:48:43;3.42;;;1.23;;
72904;SDS011;61048;52.162;4.516;2023-07-24T04:51:10;3.08;;;1.30;;
72904;SDS011;61048;52.162;4.516;2023-07-24T04:53:39;3.50;;;1.20;;
72904;SDS011;61048;52.162;4.516;2023-07-24T04:56:05;3.60;;;1.17;;
72904;SDS011;61048;52.162;4.516;2023-07-24T04:58:32;4.47;;;1.20;;
72904;SDS011;61048;52.162;4.516;2023-07-24T05:01:02;3.03;;;1.25;;
72904;SDS011;61048;52.162;4.516;2023-07-24T05:03:34;3.65;;;1.17;;
72904;SDS011;61048;52.162;4.516;2023-07-24T05:06:01;4.68;;;1.30;;
72904;SDS011;61048;52.162;4.516;2023-07-24T05:08:28;2.63;;;1.13;;
72904;SDS011;61048;52.162;4.516;2023-07-24T05:10:57;5.18;;;1.45;;
72904;SDS011;61048;52.162;4.516;2023-07-24T05:13:24;4.50;;;1.30;;
72904;SDS011;61048;52.162;4.516;2023-07-24T05:15:51;3.65;;;1.45;;
72904;SDS011;61048;52.162;4.516;2023-07-24T05:18:18;4.30;;;1.20;;
72904;SDS011;61048;52.162;4.516;2023-07-24T05:20:45;4.55;;;1.20;;
72904;SDS011;61048;52.162;4.516;2023-07-24T05:23:13;3.08;;;1.10;;
72904;SDS011;61048;52.162;4.516;2023-07-24T05:25:40;5.03;;;1.40;;
72904;SDS011;61048;52.162;4.516;2023-07-24T05:28:09;4.63;;;1.50;;
72904;SDS011;61048;52.162;4.516;2023-07-24T05:30:37;3.33;;;1.55;;
72904;SDS011;61048;52.162;4.516;2023-07-24T05:33:04;3.03;;;1.45;;
72904;SDS011;61048;52.162;4.516;2023-07-24T05:35:32;3.67;;;1.20;;
72904;SDS011;61048;52.162;4.516;2023-07-24T05:37:59;4.03;;;1.30;;
72904;SDS011;61048;52.162;4.516;2023-07-24T05:40:26;3.88;;;1.23;;
72904;SDS011;61048;52.162;4.516;2023-07-24T05:42:53;4.97;;;1.42;;
72904;SDS011;61048;52.162;4.516;2023-07-24T05:45:21;3.63;;;1.40;;
72904;SDS011;61048;52.162;4.516;2023-07-24T05:47:49;4.65;;;1.40;;
72904;SDS011;61048;52.162;4.516;2023-07-24T05:50:16;3.33;;;1.42;;
72904;SDS011;61048;52.162;4.516;2023-07-24T05:52:43;3.58;;;1.35;;
72904;SDS011;61048;52.162;4.516;2023-07-24T05:55:10;2.88;;;1.23;;
72904;SDS011;61048;52.162;4.516;2023-07-24T05:57:37;4.57;;;1.40;;
72904;SDS011;61048;52.162;4.516;2023-07-24T06:00:04;3.22;;;1.20;;
72904;SDS011;61048;52.162;4.516;2023-07-24T06:02:34;3.63;;;1.40;;
72904;SDS011;61048;52.162;4.516;2023-07-24T06:05:01;5.03;;;1.50;;
72904;SDS011;61048;52.162;4.516;2023-07-24T06:07:28;3.33;;;1.58;;
72904;SDS011;61048;52.162;4.516;2023-07-24T06:09:55;3.92;;;1.38;;
72904;SDS011;61048;52.162;4.516;2023-07-24T06:12:22;4.32;;;1.40;;
72904;SDS011;61048;52.162;4.516;2023-07-24T06:14:49;2.97;;;1.13;;
72904;SDS011;61048;52.162;4.516;2023-07-24T06:17:16;5.15;;;1.48;;
72904;SDS011;61048;52.162;4.516;2023-07-24T06:19:44;3.63;;;1.15;;
72904;SDS011;61048;52.162;4.516;2023-07-24T06:22:11;3.30;;;1.10;;
72904;SDS011;61048;52.162;4.516;2023-07-24T06:24:38;3.20;;;1.13;;
72904;SDS011;61048;52.162;4.516;2023-07-24T06:27:06;4.50;;;1.00;;
72904;SDS011;61048;52.162;4.516;2023-07-24T06:29:34;3.97;;;1.20;;
72904;SDS011;61048;52.162;4.516;2023-07-24T06:32:01;3.97;;;1.10;;
72904;SDS011;61048;52.162;4.516;2023-07-24T06:34:28;4.38;;;1.70;;
72904;SDS011;61048;52.162;4.516;2023-07-24T06:36:57;4.65;;;1.38;;
72904;SDS011;61048;52.162;4.516;2023-07-24T06:39:24;3.97;;;1.42;;
72904;SDS011;61048;52.162;4.516;2023-07-24T06:41:51;3.63;;;1.17;;
72904;SDS011;61048;52.162;4.516;2023-07-24T06:44:18;3.05;;;1.27;;
72904;SDS011;61048;52.162;4.516;2023-07-24T06:46:45;3.40;;;1.40;;
72904;SDS011;61048;52.162;4.516;2023-07-24T06:49:12;4.53;;;1.50;;
72904;SDS011;61048;52.162;4.516;2023-07-24T06:51:39;3.83;;;1.20;;
72904;SDS011;61048;52.162;4.516;2023-07-24T06:54:08;3.67;;;1.38;;
72904;SDS011;61048;52.162;4.516;2023-07-24T06:56:35;3.28;;;1.15;;
72904;SDS011;61048;52.162;4.516;2023-07-24T06:59:02;5.30;;;1.48;;
72904;SDS011;61048;52.162;4.516;2023-07-24T07:01:29;4.82;;;1.20;;
72904;SDS011;61048;52.162;4.516;2023-07-24T07:03:56;3.53;;;1.42;;
72904;SDS011;61048;52.162;4.516;2023-07-24T07:06:23;4.93;;;1.50;;
72904;SDS011;61048;52.162;4.516;2023-07-24T07:08:50;4.07;;;1.45;;
72904;SDS011;61048;52.162;4.516;2023-07-24T07:11:18;3.47;;;1.30;;
72904;SDS011;61048;52.162;4.516;2023-07-24T07:13:45;5.47;;;1.30;;
72904;SDS011;61048;52.162;4.516;2023-07-24T07:16:12;3.72;;;1.88;;
72904;SDS011;61048;52.162;4.516;2023-07-24T07:18:40;4.15;;;1.20;;
72904;SDS011;61048;52.162;4.516;2023-07-24T07:21:07;2.90;;;1.33;;
72904;SDS011;61048;52.162;4.516;2023-07-24T07:23:34;4.90;;;1.92;;
72904;SDS011;61048;52.162;4.516;2023-07-24T07:26:01;4.07;;;1.33;;
72904;SDS011;61048;52.162;4.516;2023-07-24T07:28:29;3.53;;;1.17;;
72904;SDS011;61048;52.162;4.516;2023-07-24T07:30:56;3.35;;;1.50;;
72904;SDS011;61048;52.162;4.516;2023-07-24T07:33:23;3.55;;;1.45;;
72904;SDS011;61048;52.162;4.516;2023-07-24T07:35:50;4.05;;;1.42;;
72904;SDS011;61048;52.162;4.516;2023-07-24T07:38:18;4.57;;;1.30;;
72904;SDS011;61048;52.162;4.516;2023-07-24T07:40:47;3.53;;;1.30;;
72904;SDS011;61048;52.162;4.516;2023-07-24T07:43:14;3.85;;;1.55;;
72904;SDS011;61048;52.162;4.516;2023-07-24T07:45:46;5.03;;;1.70;;
72904;SDS011;61048;52.162;4.516;2023-07-24T07:48:13;2.97;;;1.33;;
72904;SDS011;61048;52.162;4.516;2023-07-24T07:50:40;4.30;;;1.77;;
72904;SDS011;61048;52.162;4.516;2023-07-24T07:53:07;3.10;;;1.45;;
72904;SDS011;61048;52.162;4.516;2023-07-24T07:55:34;3.83;;;1.52;;
72904;SDS011;61048;52.162;4.516;2023-07-24T07:58:01;3.13;;;1.27;;
72904;SDS011;61048;52.162;4.516;2023-07-24T08:00:28;4.38;;;1.48;;
72904;SDS011;61048;52.162;4.516;2023-07-24T08:02:56;2.72;;;1.27;;
72904;SDS011;61048;52.162;4.516;2023-07-24T08:05:23;3.45;;;1.10;;
72904;SDS011;61048;52.162;4.516;2023-07-24T08:07:50;4.05;;;1.45;;
72904;SDS011;61048;52.162;4.516;2023-07-24T08:10:17;4.15;;;1.45;;
72904;SDS011;61048;52.162;4.516;2023-07-24T08:12:45;4.03;;;1.60;;
72904;SDS011;61048;52.162;4.516;2023-07-24T08:15:13;5.00;;;1.38;;
72904;SDS011;61048;52.162;4.516;2023-07-24T08:17:40;4.80;;;1.73;;
72904;SDS011;61048;52.162;4.516;2023-07-24T08:20:08;5.35;;;1.40;;
72904;SDS011;61048;52.162;4.516;2023-07-24T08:22:36;3.58;;;1.20;;
72904;SDS011;61048;52.162;4.516;2023-07-24T08:25:03;3.75;;;1.63;;
72904;SDS011;61048;52.162;4.516;2023-07-24T08:27:31;4.40;;;1.35;;
72904;SDS011;61048;52.162;4.516;2023-07-24T08:29:59;4.80;;;1.83;;
72904;SDS011;61048;52.162;4.516;2023-07-24T08:32:28;3.13;;;1.20;;
72904;SDS011;61048;52.162;4.516;2023-07-24T08:34:55;3.65;;;1.55;;
72904;SDS011;61048;52.162;4.516;2023-07-24T08:37:23;5.05;;;2.00;;
72904;SDS011;61048;52.162;4.516;2023-07-24T08:39:50;3.78;;;1.65;;
72904;SDS011;61048;52.162;4.516;2023-07-24T08:42:17;4.03;;;1.67;;
72904;SDS011;61048;52.162;4.516;2023-07-24T08:44:45;4.75;;;1.42;;
72904;SDS011;61048;52.162;4.516;2023-07-24T08:47:12;2.92;;;1.30;;
72904;SDS011;61048;52.162;4.516;2023-07-24T08:49:41;3.63;;;1.50;;
72904;SDS011;61048;52.162;4.516;2023-07-24T08:52:09;4.95;;;1.48;;
72904;SDS011;61048;52.162;4.516;2023-07-24T08:54:38;3.33;;;1.27;;
72904;SDS011;61048;52.162;4.516;2023-07-24T08:57:06;4.65;;;1.90;;
72904;SDS011;61048;52.162;4.516;2023-07-24T08:59:33;3.55;;;1.58;;
72904;SDS011;61048;52.162;4.516;2023-07-24T09:02:00;3.22;;;1.58;;
72904;SDS011;61048;52.162;4.516;2023-07-24T09:04:28;3.17;;;1.83;;
72904;SDS011;61048;52.162;4.516;2023-07-24T09:06:56;3.35;;;1.38;;
72904;SDS011;61048;52.162;4.516;2023-07-24T09:09:28;5.00;;;1.38;;
72904;SDS011;61048;52.162;4.516;2023-07-24T09:11:57;5.05;;;1.63;;
72904;SDS011;61048;52.162;4.516;2023-07-24T09:14:25;3.55;;;1.60;;
72904;SDS011;61048;52.162;4.516;2023-07-24T09:17:02;2.78;;;1.42;;
72904;SDS011;61048;52.162;4.516;2023-07-24T09:19:30;4.32;;;1.50;;
72904;SDS011;61048;52.162;4.516;2023-07-24T09:22:07;3.08;;;1.23;;
72904;SDS011;61048;52.162;4.516;2023-07-24T09:27:06;3.42;;;1.20;;
72904;SDS011;61048;52.162;4.516;2023-07-24T09:29:35;2.67;;;1.25;;
72904;SDS011;61048;52.162;4.516;2023-07-24T09:32:02;4.47;;;1.73;;
72904;SDS011;61048;52.162;4.516;2023-07-24T09:34:29;3.40;;;1.27;;
72904;SDS011;61048;52.162;4.516;2023-07-24T09:36:58;2.55;;;1.20;;
72904;SDS011;61048;52.162;4.516;2023-07-24T09:39:26;3.28;;;1.50;;
72904;SDS011;61048;52.162;4.516;2023-07-24T09:41:53;5.25;;;1.30;;
72904;SDS011;61048;52.162;4.516;2023-07-24T09:44:31;2.80;;;1.23;;
72904;SDS011;61048;52.162;4.516;2023-07-24T09:46:58;3.47;;;1.60;;
72904;SDS011;61048;52.162;4.516;2023-07-24T09:49:26;3.42;;;1.50;;
72904;SDS011;61048;52.162;4.516;2023-07-24T09:51:53;3.33;;;1.52;;
72904;SDS011;61048;52.162;4.516;2023-07-24T09:56:56;3.95;;;1.48;;
72904;SDS011;61048;52.162;4.516;2023-07-24T09:59:24;3.45;;;1.50;;
72904;SDS011;61048;52.162;4.516;2023-07-24T10:01:56;3.28;;;1.40;;
72904;SDS011;61048;52.162;4.516;2023-07-24T10:04:24;4.00;;;1.48;;
72904;SDS011;61048;52.162;4.516;2023-07-24T10:06:51;5.53;;;1.40;;
72904;SDS011;61048;52.162;4.516;2023-07-24T10:09:18;3.47;;;1.27;;
72904;SDS011;61048;52.162;4.516;2023-07-24T10:11:48;5.68;;;1.83;;
72904;SDS011;61048;52.162;4.516;2023-07-24T10:14:14;4.13;;;1.67;;
72904;SDS011;61048;52.162;4.516;2023-07-24T10:16:44;2.75;;;1.42;;
72904;SDS011;61048;52.162;4.516;2023-07-24T10:19:15;3.60;;;1.40;;
72904;SDS011;61048;52.162;4.516;2023-07-24T10:21:46;5.30;;;1.63;;
72904;SDS011;61048;52.162;4.516;2023-07-24T10:24:13;4.18;;;1.90;;
72904;SDS011;61048;52.162;4.516;2023-07-24T10:26:41;4.30;;;1.67;;
72904;SDS011;61048;52.162;4.516;2023-07-24T10:29:08;4.03;;;1.60;;
72904;SDS011;61048;52.162;4.516;2023-07-24T10:31:35;3.38;;;1.58;;
72904;SDS011;61048;52.162;4.516;2023-07-24T10:34:05;4.03;;;1.50;;
72904;SDS011;61048;52.162;4.516;2023-07-24T10:36:35;3.72;;;1.60;;
72904;SDS011;61048;52.162;4.516;2023-07-24T10:39:12;4.22;;;1.70;;
72904;SDS011;61048;52.162;4.516;2023-07-24T10:41:39;3.00;;;1.33;;
72904;SDS011;61048;52.162;4.516;2023-07-24T10:44:06;3.15;;;1.30;;
72904;SDS011;61048;52.162;4.516;2023-07-24T10:46:37;4.32;;;1.55;;
72904;SDS011;61048;52.162;4.516;2023-07-24T10:49:05;2.78;;;1.60;;
72904;SDS011;61048;52.162;4.516;2023-07-24T10:51:32;3.05;;;1.60;;
72904;SDS011;61048;52.162;4.516;2023-07-24T10:54:02;3.95;;;1.63;;
72904;SDS011;61048;52.162;4.516;2023-07-24T10:56:30;3.67;;;1.77;;
72904;SDS011;61048;52.162;4.516;2023-07-24T10:59:01;3.95;;;1.60;;
72904;SDS011;61048;52.162;4.516;2023-07-24T11:01:29;3.63;;;1.30;;
72904;SDS011;61048;52.162;4.516;2023-07-24T11:03:57;3.08;;;1.83;;
72904;SDS011;61048;52.162;4.516;2023-07-24T11:06:24;3.17;;;1.60;;
72904;SDS011;61048;52.162;4.516;2023-07-24T11:08:53;2.28;;;1.17;;
72904;SDS011;61048;52.162;4.516;2023-07-24T11:11:22;4.43;;;1.70;;
72904;SDS011;61048;52.162;4.516;2023-07-24T11:13:53;3.75;;;1.45;;
72904;SDS011;61048;52.162;4.516;2023-07-24T11:16:20;3.53;;;1.70;;
72904;SDS011;61048;52.162;4.516;2023-07-24T11:18:48;4.25;;;1.85;;
72904;SDS011;61048;52.162;4.516;2023-07-24T11:21:17;3.35;;;1.50;;
72904;SDS011;61048;52.162;4.516;2023-07-24T11:23:45;4.22;;;1.63;;
72904;SDS011;61048;52.162;4.516;2023-07-24T11:26:14;4.65;;;1.38;;
72904;SDS011;61048;52.162;4.516;2023-07-24T11:28:41;4.05;;;1.50;;
72904;SDS011;61048;52.162;4.516;2023-07-24T11:31:08;2.42;;;1.10;;
72904;SDS011;61048;52.162;4.516;2023-07-24T11:33:36;4.00;;;1.08;;
72904;SDS011;61048;52.162;4.516;2023-07-24T11:36:04;3.28;;;1.25;;
72904;SDS011;61048;52.162;4.516;2023-07-24T11:38:31;3.10;;;1.15;;
72904;SDS011;61048;52.162;4.516;2023-07-24T11:40:58;3.28;;;1.17;;
72904;SDS011;61048;52.162;4.516;2023-07-24T11:43:26;2.75;;;1.08;;
72904;SDS011;61048;52.162;4.516;2023-07-24T11:45:53;3.35;;;1.05;;
72904;SDS011;61048;52.162;4.516;2023-07-24T11:48:20;2.35;;;1.25;;
72904;SDS011;61048;52.162;4.516;2023-07-24T11:50:50;1.92;;;0.80;;
72904;SDS011;61048;52.162;4.516;2023-07-24T11:53:18;2.30;;;1.00;;
72904;SDS011;61048;52.162;4.516;2023-07-24T11:55:47;3.25;;;0.88;;
72904;SDS011;61048;52.162;4.516;2023-07-24T11:58:15;2.28;;;0.80;;
72904;SDS011;61048;52.162;4.516;2023-07-24T12:00:44;2.40;;;1.15;;
72904;SDS011;61048;52.162;4.516;2023-07-24T12:03:11;2.92;;;0.98;;
72904;SDS011;61048;52.162;4.516;2023-07-24T12:05:39;1.95;;;0.70;;
72904;SDS011;61048;52.162;4.516;2023-07-24T12:08:07;1.70;;;0.85;;
72904;SDS011;61048;52.162;4.516;2023-07-24T12:10:35;2.67;;;0.93;;
72904;SDS011;61048;52.162;4.516;2023-07-24T12:13:03;1.85;;;0.70;;
72904;SDS011;61048;52.162;4.516;2023-07-24T12:15:30;2.10;;;0.60;;
72904;SDS011;61048;52.162;4.516;2023-07-24T12:17:59;1.58;;;0.70;;
72904;SDS011;61048;52.162;4.516;2023-07-24T12:20:26;1.77;;;0.60;;
72904;SDS011;61048;52.162;4.516;2023-07-24T12:22:54;2.47;;;0.80;;
72904;SDS011;61048;52.162;4.516;2023-07-24T12:25:21;2.45;;;0.80;;
72904;SDS011;61048;52.162;4.516;2023-07-24T12:27:48;2.10;;;0.60;;
72904;SDS011;61048;52.162;4.516;2023-07-24T12:30:15;1.98;;;0.70;;
72904;SDS011;61048;52.162;4.516;2023-07-24T12:32:42;2.05;;;0.70;;
72904;SDS011;61048;52.162;4.516;2023-07-24T12:35:11;1.85;;;0.55;;
72904;SDS011;61048;52.162;4.516;2023-07-24T12:37:38;1.55;;;0.50;;
72904;SDS011;61048;52.162;4.516;2023-07-24T12:40:06;1.73;;;0.55;;
72904;SDS011;61048;52.162;4.516;2023-07-24T12:42:33;2.20;;;0.50;;
72904;SDS011;61048;52.162;4.516;2023-07-24T12:45:01;1.85;;;0.60;;
72904;SDS011;61048;52.162;4.516;2023-07-24T12:47:29;1.13;;;0.45;;
72904;SDS011;61048;52.162;4.516;2023-07-24T12:49:56;1.77;;;0.60;;
72904;SDS011;61048;52.162;4.516;2023-07-24T12:52:25;2.65;;;0.70;;
72904;SDS011;61048;52.162;4.516;2023-07-24T12:54:52;2.13;;;0.70;;
72904;SDS011;61048;52.162;4.516;2023-07-24T12:57:19;1.58;;;0.50;;
72904;SDS011;61048;52.162;4.516;2023-07-24T12:59:46;1.52;;;0.40;;
72904;SDS011;61048;52.162;4.516;2023-07-24T13:02:13;2.40;;;0.73;;
72904;SDS011;61048;52.162;4.516;2023-07-24T13:04:41;1.48;;;0.47;;
72904;SDS011;61048;52.162;4.516;2023-07-24T13:07:08;2.15;;;0.60;;
72904;SDS011;61048;52.162;4.516;2023-07-24T13:09:36;1.63;;;0.57;;
72904;SDS011;61048;52.162;4.516;2023-07-24T13:12:03;2.60;;;0.55;;
72904;SDS011;61048;52.162;4.516;2023-07-24T13:14:31;1.92;;;0.50;;
72904;SDS011;61048;52.162;4.516;2023-07-24T13:16:58;1.45;;;0.52;;
72904;SDS011;61048;52.162;4.516;2023-07-24T13:19:25;1.55;;;0.40;;
72904;SDS011;61048;52.162;4.516;2023-07-24T13:21:51;2.08;;;0.43;;
72904;SDS011;61048;52.162;4.516;2023-07-24T13:24:18;2.33;;;0.50;;
72904;SDS011;61048;52.162;4.516;2023-07-24T13:26:47;1.08;;;0.40;;
72904;SDS011;61048;52.162;4.516;2023-07-24T13:29:14;2.38;;;0.50;;
72904;SDS011;61048;52.162;4.516;2023-07-24T13:31:41;2.58;;;0.60;;
72904;SDS011;61048;52.162;4.516;2023-07-24T13:34:08;2.13;;;0.50;;
72904;SDS011;61048;52.162;4.516;2023-07-24T13:36:35;2.70;;;0.43;;
72904;SDS011;61048;52.162;4.516;2023-07-24T13:39:02;2.60;;;0.70;;
72904;SDS011;61048;52.162;4.516;2023-07-24T13:41:29;1.73;;;0.40;;
72904;SDS011;61048;52.162;4.516;2023-07-24T13:43:58;1.92;;;0.40;;
72904;SDS011;61048;52.162;4.516;2023-07-24T13:46:25;2.10;;;0.32;;
72904;SDS011;61048;52.162;4.516;2023-07-24T13:48:52;2.63;;;0.40;;
72904;SDS011;61048;52.162;4.516;2023-07-24T13:51:19;2.30;;;0.50;;
72904;SDS011;61048;52.162;4.516;2023-07-24T13:53:46;4.10;;;0.60;;
72904;SDS011;61048;52.162;4.516;2023-07-24T13:56:14;1.40;;;0.40;;
72904;SDS011;61048;52.162;4.516;2023-07-24T13:58:42;2.05;;;0.40;;
72904;SDS011;61048;52.162;4.516;2023-07-24T14:01:10;3.50;;;0.65;;
72904;SDS011;61048;52.162;4.516;2023-07-24T14:03:37;2.03;;;0.40;;
72904;SDS011;61048;52.162;4.516;2023-07-24T14:06:04;2.13;;;0.40;;
72904;SDS011;61048;52.162;4.516;2023-07-24T14:08:30;1.83;;;0.40;;
72904;SDS011;61048;52.162;4.516;2023-07-24T14:10:57;2.47;;;0.30;;
72904;SDS011;61048;52.162;4.516;2023-07-24T14:13:24;2.13;;;0.70;;
72904;SDS011;61048;52.162;4.516;2023-07-24T14:15:51;3.25;;;0.47;;
72904;SDS011;61048;52.162;4.516;2023-07-24T14:18:19;2.28;;;0.40;;
72904;SDS011;61048;52.162;4.516;2023-07-24T14:20:46;1.98;;;0.35;;
72904;SDS011;61048;52.162;4.516;2023-07-24T14:23:13;2.35;;;0.40;;
72904;SDS011;61048;52.162;4.516;2023-07-24T14:25:40;2.65;;;0.20;;
72904;SDS011;61048;52.162;4.516;2023-07-24T14:28:07;1.42;;;0.32;;
72904;SDS011;61048;52.162;4.516;2023-07-24T14:30:34;2.35;;;0.22;;
72904;SDS011;61048;52.162;4.516;2023-07-24T14:33:01;1.88;;;0.25;;
72904;SDS011;61048;52.162;4.516;2023-07-24T14:35:29;2.30;;;0.40;;
72904;SDS011;61048;52.162;4.516;2023-07-24T14:37:56;1.38;;;0.40;;
72904;SDS011;61048;52.162;4.516;2023-07-24T14:40:23;2.33;;;0.50;;
72904;SDS011;61048;52.162;4.516;2023-07-24T14:42:50;2.50;;;0.30;;
72904;SDS011;61048;52.162;4.516;2023-07-24T14:45:17;2.13;;;0.32;;
72904;SDS011;61048;52.162;4.516;2023-07-24T14:47:44;1.67;;;0.40;;
72904;SDS011;61048;52.162;4.516;2023-07-24T14:50:11;2.13;;;0.40;;
72904;SDS011;61048;52.162;4.516;2023-07-24T14:52:39;2.03;;;0.25;;
72904;SDS011;61048;52.162;4.516;2023-07-24T14:55:07;0.70;;;0.15;;
72904;SDS011;61048;52.162;4.516;2023-07-24T14:57:35;2.67;;;0.30;;